createdAt,value
2018-06-24T00:00:55.594Z,0.00
2018-06-24T00:01:55.521Z,0.00
2018-06-24T00:02:55.506Z,0.00
2018-06-24T00:03:55.478Z,0.00
2018-06-24T00:04:55.406Z,0.00
2018-06-24T00:05:55.378Z,0.00
2018-06-24T00:06:55.339Z,0.00
2018-06-24T00:07:55.311Z,0.00
2018-06-24T00:08:55.401Z,0.00
2018-06-24T00:09:55.234Z,0.00
2018-06-24T00:10:55.195Z,0.00
2018-06-24T00:11:55.170Z,0.00
2018-06-24T00:12:55.118Z,0.00
2018-06-24T00:13:55.121Z,0.00
2018-06-24T00:14:55.053Z,0.00
2018-06-24T00:15:55.039Z,0.00
2018-06-24T00:16:54.989Z,0.00
2018-06-24T00:17:54.940Z,0.00
2018-06-24T00:18:54.922Z,0.00
2018-06-24T00:19:54.859Z,0.00
2018-06-24T00:20:54.858Z,0.00
2018-06-24T00:21:54.839Z,0.00
2018-06-24T00:22:54.832Z,0.00
2018-06-24T00:23:55.531Z,0.00
2018-06-24T00:24:54.668Z,0.00
2018-06-24T00:25:54.631Z,0.00
2018-06-24T00:26:54.609Z,0.00
2018-06-24T00:27:54.621Z,0.00
2018-06-24T00:28:54.537Z,0.00
2018-06-24T00:29:54.493Z,0.00
2018-06-24T00:30:54.485Z,0.00
2018-06-24T00:31:54.438Z,0.00
2018-06-24T00:32:54.438Z,0.00
2018-06-24T00:33:54.488Z,0.00
2018-06-24T00:34:54.323Z,0.00
2018-06-24T00:35:54.350Z,0.00
2018-06-24T00:36:54.270Z,0.00
2018-06-24T00:37:54.190Z,0.00
2018-06-24T00:38:54.176Z,0.00
2018-06-24T00:39:54.169Z,0.00
2018-06-24T00:40:54.097Z,0.00
2018-06-24T00:41:54.041Z,0.00
2018-06-24T00:42:54.141Z,0.00
2018-06-24T00:43:54.026Z,0.00
2018-06-24T00:44:54.071Z,0.00
2018-06-24T00:45:53.984Z,0.00
2018-06-24T00:46:53.924Z,0.00
2018-06-24T00:47:53.877Z,0.00
2018-06-24T00:48:53.770Z,0.00
2018-06-24T00:49:53.740Z,0.00
2018-06-24T00:50:53.702Z,0.00
2018-06-24T00:51:53.698Z,0.00
2018-06-24T00:52:53.629Z,0.00
2018-06-24T00:53:53.604Z,0.00
2018-06-24T00:54:53.560Z,0.00
2018-06-24T00:55:53.530Z,0.00
2018-06-24T00:56:53.477Z,0.00
2018-06-24T00:57:53.463Z,0.00
2018-06-24T00:58:53.423Z,0.00
2018-06-24T00:59:53.381Z,0.00
2018-06-24T01:00:53.351Z,0.00
2018-06-24T01:01:53.302Z,0.00
2018-06-24T01:02:53.261Z,0.00
2018-06-24T01:03:53.224Z,0.00
2018-06-24T01:04:53.204Z,0.00
2018-06-24T01:05:53.152Z,0.00
2018-06-24T01:06:53.131Z,0.00
2018-06-24T01:07:53.089Z,0.00
2018-06-24T01:08:53.046Z,0.00
2018-06-24T01:09:53.013Z,0.00
2018-06-24T01:10:52.981Z,0.00
2018-06-24T01:11:52.925Z,0.00
2018-06-24T01:12:52.878Z,0.00
2018-06-24T01:13:52.866Z,0.00
2018-06-24T01:14:52.808Z,0.00
2018-06-24T01:15:52.768Z,0.00
2018-06-24T01:16:52.758Z,0.00
2018-06-24T01:17:52.735Z,0.00
2018-06-24T01:18:52.733Z,0.00
2018-06-24T01:19:52.724Z,0.00
2018-06-24T01:20:52.625Z,0.00
2018-06-24T01:21:52.549Z,0.00
2018-06-24T01:22:52.537Z,0.00
2018-06-24T01:23:52.509Z,0.00
2018-06-24T01:24:52.443Z,0.00
2018-06-24T01:25:52.450Z,0.00
2018-06-24T01:26:52.370Z,0.00
2018-06-24T01:27:52.328Z,0.00
2018-06-24T01:28:52.312Z,0.00
2018-06-24T01:29:52.257Z,0.00
2018-06-24T01:30:52.246Z,0.00
2018-06-24T01:31:52.207Z,0.00
2018-06-24T01:32:52.138Z,0.00
2018-06-24T01:33:52.121Z,0.00
2018-06-24T01:34:52.066Z,0.00
2018-06-24T01:35:52.072Z,0.00
2018-06-24T01:36:51.983Z,0.00
2018-06-24T01:37:51.967Z,0.00
2018-06-24T01:38:51.927Z,0.00
2018-06-24T01:39:51.880Z,0.00
2018-06-24T01:40:51.882Z,0.00
2018-06-24T01:41:51.827Z,0.00
2018-06-24T01:42:51.765Z,0.00
2018-06-24T01:43:51.736Z,0.00
2018-06-24T01:44:51.687Z,0.00
2018-06-24T01:45:51.656Z,0.00
2018-06-24T01:46:51.623Z,0.00
2018-06-24T01:47:51.614Z,0.00
2018-06-24T01:48:51.558Z,0.00
2018-06-24T01:49:51.535Z,0.00
2018-06-24T01:50:51.492Z,0.00
2018-06-24T01:51:51.432Z,0.00
2018-06-24T01:52:51.450Z,0.00
2018-06-24T01:53:51.359Z,0.00
2018-06-24T01:54:51.359Z,0.00
2018-06-24T01:55:51.278Z,0.00
2018-06-24T01:56:51.272Z,0.00
2018-06-24T01:57:51.207Z,0.00
2018-06-24T01:58:51.189Z,0.00
2018-06-24T01:59:51.262Z,0.00
2018-06-24T02:00:51.107Z,0.00
2018-06-24T02:01:51.072Z,0.00
2018-06-24T02:02:51.040Z,0.00
2018-06-24T02:03:51.056Z,0.00
2018-06-24T02:04:50.950Z,0.00
2018-06-24T02:05:50.979Z,0.00
2018-06-24T02:06:50.872Z,0.00
2018-06-24T02:07:50.869Z,0.00
2018-06-24T02:08:50.820Z,0.00
2018-06-24T02:09:50.795Z,0.00
2018-06-24T02:10:50.733Z,0.00
2018-06-24T02:11:50.716Z,0.00
2018-06-24T02:12:50.646Z,0.00
2018-06-24T02:13:50.619Z,0.00
2018-06-24T02:14:50.580Z,0.00
2018-06-24T02:15:50.595Z,0.00
2018-06-24T02:16:50.499Z,0.00
2018-06-24T02:17:50.470Z,0.00
2018-06-24T02:18:50.421Z,0.00
2018-06-24T02:19:50.386Z,0.00
2018-06-24T02:20:50.455Z,0.00
2018-06-24T02:21:50.372Z,0.00
2018-06-24T02:22:50.296Z,0.00
2018-06-24T02:23:50.235Z,0.00
2018-06-24T02:24:50.219Z,0.00
2018-06-24T02:25:50.175Z,0.00
2018-06-24T02:26:50.129Z,0.00
2018-06-24T02:27:50.108Z,0.00
2018-06-24T02:28:50.056Z,0.00
2018-06-24T02:29:50.009Z,0.00
2018-06-24T02:30:49.982Z,0.00
2018-06-24T02:31:49.947Z,0.00
2018-06-24T02:32:49.956Z,0.00
2018-06-24T02:33:49.867Z,0.00
2018-06-24T02:34:49.848Z,0.00
2018-06-24T02:35:49.800Z,0.00
2018-06-24T02:36:49.766Z,0.00
2018-06-24T02:37:49.709Z,0.00
2018-06-24T02:38:49.699Z,0.00
2018-06-24T02:39:49.634Z,0.00
2018-06-24T02:40:49.612Z,0.00
2018-06-24T02:41:49.577Z,0.00
2018-06-24T02:42:49.548Z,0.00
2018-06-24T02:43:49.503Z,0.00
2018-06-24T02:44:49.456Z,0.00
2018-06-24T02:45:49.414Z,0.00
2018-06-24T02:46:49.394Z,0.00
2018-06-24T02:47:49.362Z,0.00
2018-06-24T02:48:49.327Z,0.00
2018-06-24T02:49:49.265Z,5.63
2018-06-24T02:50:49.257Z,5.63
2018-06-24T02:51:49.194Z,5.63
2018-06-24T02:52:49.153Z,5.63
2018-06-24T02:53:49.138Z,5.63
2018-06-24T02:54:49.084Z,5.63
2018-06-24T02:55:49.061Z,5.63
2018-06-24T02:56:49.021Z,5.63
2018-06-24T02:57:49.015Z,11.25
2018-06-24T02:58:48.947Z,11.25
2018-06-24T02:59:48.905Z,11.25
2018-06-24T03:00:48.853Z,11.25
2018-06-24T03:01:48.935Z,11.25
2018-06-24T03:02:48.828Z,16.88
2018-06-24T03:03:48.755Z,16.88
2018-06-24T03:04:48.705Z,16.88
2018-06-24T03:05:48.693Z,16.88
2018-06-24T03:06:48.625Z,16.88
2018-06-24T03:07:48.612Z,16.88
2018-06-24T03:08:48.596Z,22.50
2018-06-24T03:09:48.526Z,22.50
2018-06-24T03:10:48.539Z,22.50
2018-06-24T03:11:48.467Z,22.50
2018-06-24T03:12:48.406Z,28.13
2018-06-24T03:13:48.469Z,28.13
2018-06-24T03:14:48.338Z,28.13
2018-06-24T03:15:48.307Z,28.13
2018-06-24T03:16:48.254Z,33.75
2018-06-24T03:17:48.221Z,33.75
2018-06-24T03:18:48.188Z,33.75
2018-06-24T03:19:48.153Z,33.75
2018-06-24T03:20:48.107Z,39.38
2018-06-24T03:21:48.073Z,39.38
2018-06-24T03:22:48.028Z,45.00
2018-06-24T03:23:47.997Z,45.00
2018-06-24T03:24:47.959Z,45.00
2018-06-24T03:25:47.942Z,45.00
2018-06-24T03:26:47.882Z,45.00
2018-06-24T03:27:47.875Z,45.00
2018-06-24T03:28:47.799Z,45.00
2018-06-24T03:29:47.797Z,50.63
2018-06-24T03:30:47.761Z,50.63
2018-06-24T03:31:47.718Z,56.25
2018-06-24T03:32:47.680Z,61.88
2018-06-24T03:33:47.614Z,67.50
2018-06-24T03:34:47.606Z,67.50
2018-06-24T03:35:47.576Z,67.50
2018-06-24T03:36:47.526Z,67.50
2018-06-24T03:37:47.473Z,73.13
2018-06-24T03:38:47.462Z,78.75
2018-06-24T03:39:47.409Z,78.75
2018-06-24T03:40:47.453Z,84.38
2018-06-24T03:41:47.322Z,95.63
2018-06-24T03:42:47.285Z,101.25
2018-06-24T03:43:47.276Z,106.88
2018-06-24T03:44:47.219Z,118.13
2018-06-24T03:45:47.223Z,123.75
2018-06-24T03:46:47.134Z,129.38
2018-06-24T03:47:47.105Z,135.00
2018-06-24T03:48:47.063Z,135.00
2018-06-24T03:49:47.028Z,135.00
2018-06-24T03:50:47.015Z,140.63
2018-06-24T03:51:46.955Z,146.25
2018-06-24T03:52:46.919Z,151.88
2018-06-24T03:53:46.864Z,163.13
2018-06-24T03:54:46.844Z,168.75
2018-06-24T03:55:46.791Z,174.38
2018-06-24T03:56:46.755Z,180.00
2018-06-24T03:57:46.720Z,185.63
2018-06-24T03:58:46.677Z,196.88
2018-06-24T03:59:46.657Z,202.50
2018-06-24T04:00:46.653Z,213.75
2018-06-24T04:01:46.610Z,219.38
2018-06-24T04:02:46.587Z,225.00
2018-06-24T04:03:46.536Z,230.63
2018-06-24T04:04:46.658Z,236.25
2018-06-24T04:05:46.421Z,241.88
2018-06-24T04:06:46.421Z,253.13
2018-06-24T04:07:46.359Z,258.75
2018-06-24T04:08:46.311Z,270.00
2018-06-24T04:09:47.089Z,275.63
2018-06-24T04:10:46.234Z,286.88
2018-06-24T04:11:46.224Z,292.50
2018-06-24T04:12:46.152Z,298.13
2018-06-24T04:13:46.190Z,303.75
2018-06-24T04:14:46.118Z,309.38
2018-06-24T04:15:46.056Z,309.38
2018-06-24T04:16:46.603Z,320.63
2018-06-24T04:17:45.980Z,326.25
2018-06-24T04:18:45.981Z,331.88
2018-06-24T04:19:45.913Z,337.50
2018-06-24T04:20:45.906Z,343.13
2018-06-24T04:21:45.838Z,348.75
2018-06-24T04:22:45.800Z,354.38
2018-06-24T04:23:45.747Z,360.00
2018-06-24T04:24:45.726Z,360.00
2018-06-24T04:25:45.686Z,365.63
2018-06-24T04:26:45.652Z,371.25
2018-06-24T04:27:45.626Z,360.00
2018-06-24T04:28:45.619Z,388.13
2018-06-24T04:29:45.654Z,376.88
2018-06-24T04:30:45.509Z,388.13
2018-06-24T04:31:45.508Z,421.88
2018-06-24T04:32:45.448Z,438.75
2018-06-24T04:33:45.409Z,450.00
2018-06-24T04:34:45.423Z,450.00
2018-06-24T04:35:45.324Z,455.63
2018-06-24T04:36:45.283Z,461.25
2018-06-24T04:37:45.229Z,483.75
2018-06-24T04:38:45.213Z,500.63
2018-06-24T04:39:45.265Z,528.75
2018-06-24T04:40:45.148Z,551.25
2018-06-24T04:41:45.152Z,573.75
2018-06-24T04:42:45.115Z,601.88
2018-06-24T04:43:45.038Z,641.25
2018-06-24T04:44:45.008Z,725.63
2018-06-24T04:45:44.944Z,1057.50
2018-06-24T04:46:44.921Z,776.25
2018-06-24T04:47:44.918Z,1063.13
2018-06-24T04:48:44.875Z,950.63
2018-06-24T04:49:44.801Z,753.75
2018-06-24T04:50:44.833Z,680.63
2018-06-24T04:51:44.835Z,658.13
2018-06-24T04:52:44.706Z,635.63
2018-06-24T04:53:44.768Z,613.13
2018-06-24T04:54:44.622Z,585.00
2018-06-24T04:55:44.580Z,573.75
2018-06-24T04:56:44.627Z,562.50
2018-06-24T04:57:44.558Z,551.25
2018-06-24T04:58:44.472Z,551.25
2018-06-24T04:59:44.452Z,551.25
2018-06-24T05:00:44.441Z,545.63
2018-06-24T05:01:44.394Z,540.00
2018-06-24T05:02:44.386Z,534.38
2018-06-24T05:03:44.310Z,528.75
2018-06-24T05:04:44.264Z,523.13
2018-06-24T05:05:44.384Z,540.00
2018-06-24T05:06:44.198Z,551.25
2018-06-24T05:07:44.167Z,568.13
2018-06-24T05:08:44.113Z,562.50
2018-06-24T05:09:44.089Z,556.88
2018-06-24T05:10:44.066Z,568.13
2018-06-24T05:11:44.014Z,573.75
2018-06-24T05:12:43.999Z,590.63
2018-06-24T05:13:43.960Z,596.25
2018-06-24T05:14:43.928Z,596.25
2018-06-24T05:15:43.904Z,607.50
2018-06-24T05:16:43.870Z,613.13
2018-06-24T05:17:43.845Z,641.25
2018-06-24T05:18:43.776Z,675.00
2018-06-24T05:19:43.770Z,680.63
2018-06-24T05:20:43.694Z,663.75
2018-06-24T05:21:43.684Z,646.88
2018-06-24T05:22:43.648Z,663.75
2018-06-24T05:23:43.640Z,675.00
2018-06-24T05:24:43.561Z,669.38
2018-06-24T05:25:43.531Z,669.38
2018-06-24T05:26:43.488Z,697.50
2018-06-24T05:27:43.486Z,725.63
2018-06-24T05:28:43.424Z,731.25
2018-06-24T05:29:43.413Z,731.25
2018-06-24T05:30:43.358Z,731.25
2018-06-24T05:31:43.326Z,736.88
2018-06-24T05:32:43.320Z,748.13
2018-06-24T05:33:43.240Z,770.63
2018-06-24T05:34:43.247Z,798.75
2018-06-24T05:35:43.252Z,838.13
2018-06-24T05:36:43.171Z,860.63
2018-06-24T05:37:43.189Z,883.13
2018-06-24T05:38:43.111Z,911.25
2018-06-24T05:39:43.063Z,933.75
2018-06-24T05:40:43.031Z,939.38
2018-06-24T05:41:42.990Z,945.00
2018-06-24T05:42:42.983Z,933.75
2018-06-24T05:43:42.915Z,939.38
2018-06-24T05:44:42.919Z,956.25
2018-06-24T05:45:42.850Z,961.88
2018-06-24T05:46:42.801Z,978.75
2018-06-24T05:47:42.798Z,995.63
2018-06-24T05:48:42.748Z,1001.25
2018-06-24T05:49:42.794Z,1001.25
2018-06-24T05:50:42.653Z,1012.50
2018-06-24T05:51:42.616Z,1029.38
2018-06-24T05:52:42.614Z,1063.13
2018-06-24T05:53:42.624Z,1068.75
2018-06-24T05:54:42.661Z,1040.63
2018-06-24T05:55:42.502Z,1040.63
2018-06-24T05:56:42.480Z,1040.63
2018-06-24T05:57:42.488Z,1080.00
2018-06-24T05:58:42.578Z,1130.63
2018-06-24T05:59:42.352Z,1170.00
2018-06-24T06:00:42.332Z,1175.63
2018-06-24T06:01:42.289Z,1153.13
2018-06-24T06:02:42.277Z,1164.38
2018-06-24T06:03:42.216Z,1164.38
2018-06-24T06:04:42.250Z,1186.88
2018-06-24T06:05:42.142Z,1243.13
2018-06-24T06:06:42.145Z,1305.00
2018-06-24T06:07:42.093Z,1344.38
2018-06-24T06:08:42.042Z,1333.13
2018-06-24T06:09:41.999Z,1338.75
2018-06-24T06:10:41.982Z,1293.75
2018-06-24T06:11:41.955Z,1282.50
2018-06-24T06:12:41.908Z,1282.50
2018-06-24T06:13:41.886Z,1327.50
2018-06-24T06:14:41.864Z,1378.13
2018-06-24T06:15:41.805Z,1456.88
2018-06-24T06:16:41.790Z,1530.00
2018-06-24T06:17:41.754Z,1546.88
2018-06-24T06:18:41.714Z,1558.13
2018-06-24T06:19:41.719Z,1541.25
2018-06-24T06:20:41.724Z,1620.00
2018-06-24T06:21:41.668Z,1580.63
2018-06-24T06:22:41.572Z,1558.13
2018-06-24T06:23:41.555Z,1468.13
2018-06-24T06:24:41.512Z,1406.25
2018-06-24T06:25:41.461Z,1344.38
2018-06-24T06:26:42.168Z,1299.38
2018-06-24T06:27:41.416Z,1260.00
2018-06-24T06:28:41.367Z,1231.88
2018-06-24T06:29:41.368Z,1215.00
2018-06-24T06:30:41.336Z,1231.88
2018-06-24T06:31:41.281Z,1260.00
2018-06-24T06:32:41.245Z,1288.13
2018-06-24T06:33:41.219Z,1305.00
2018-06-24T06:34:41.178Z,1316.25
2018-06-24T06:35:41.255Z,1338.75
2018-06-24T06:36:41.166Z,1288.13
2018-06-24T06:37:41.103Z,1265.63
2018-06-24T06:38:41.089Z,1271.25
2018-06-24T06:39:41.024Z,1299.38
2018-06-24T06:40:41.028Z,1366.88
2018-06-24T06:41:40.948Z,1473.75
2018-06-24T06:42:40.954Z,1552.50
2018-06-24T06:43:40.882Z,1608.75
2018-06-24T06:44:40.838Z,1631.25
2018-06-24T06:45:41.038Z,1614.38
2018-06-24T06:46:40.780Z,1580.63
2018-06-24T06:47:40.766Z,1535.63
2018-06-24T06:48:40.722Z,1552.50
2018-06-24T06:49:40.691Z,1569.38
2018-06-24T06:50:40.689Z,1648.13
2018-06-24T06:51:40.611Z,1788.75
2018-06-24T06:52:40.598Z,1850.63
2018-06-24T06:53:40.551Z,1800.00
2018-06-24T06:54:40.524Z,1614.38
2018-06-24T06:55:40.488Z,1586.25
2018-06-24T06:56:40.475Z,1653.75
2018-06-24T06:57:40.509Z,1659.38
2018-06-24T06:58:40.401Z,1642.50
2018-06-24T06:59:40.376Z,1591.88
2018-06-24T07:00:40.366Z,1524.38
2018-06-24T07:01:40.296Z,1541.25
2018-06-24T07:02:40.294Z,1659.38
2018-06-24T07:03:40.253Z,1681.88
2018-06-24T07:04:40.243Z,1743.75
2018-06-24T07:05:40.282Z,1861.88
2018-06-24T07:06:40.211Z,1951.88
2018-06-24T07:07:40.106Z,2013.75
2018-06-24T07:08:40.511Z,1935.00
2018-06-24T07:09:40.090Z,1884.38
2018-06-24T07:10:40.005Z,2081.25
2018-06-24T07:11:39.972Z,1985.63
2018-06-24T07:12:40.034Z,1974.38
2018-06-24T07:13:39.906Z,1918.13
2018-06-24T07:14:39.926Z,2036.25
2018-06-24T07:15:39.875Z,2086.88
2018-06-24T07:16:39.837Z,3341.25
2018-06-24T07:17:39.828Z,2705.63
2018-06-24T07:18:39.771Z,2328.75
2018-06-24T07:19:39.796Z,3144.38
2018-06-24T07:20:39.722Z,3223.13
2018-06-24T07:21:39.648Z,3600.00
2018-06-24T07:22:39.647Z,3622.50
2018-06-24T07:23:39.594Z,2992.50
2018-06-24T07:24:39.673Z,2379.38
2018-06-24T07:25:39.615Z,2463.75
2018-06-24T07:26:39.520Z,3116.25
2018-06-24T07:27:39.503Z,1738.13
2018-06-24T07:28:39.455Z,1794.38
2018-06-24T07:29:39.446Z,1743.75
2018-06-24T07:30:39.545Z,2992.50
2018-06-24T07:31:39.428Z,3065.63
2018-06-24T07:32:39.932Z,2801.25
2018-06-24T07:33:39.536Z,4100.63
2018-06-24T07:34:39.324Z,2947.50
2018-06-24T07:35:39.244Z,4449.38
2018-06-24T07:36:39.225Z,2345.63
2018-06-24T07:37:39.280Z,2250.00
2018-06-24T07:38:39.304Z,3504.38
2018-06-24T07:39:39.204Z,2733.75
2018-06-24T07:40:39.110Z,2441.25
2018-06-24T07:41:39.089Z,2306.25
2018-06-24T07:42:39.076Z,2047.50
2018-06-24T07:43:39.003Z,2188.13
2018-06-24T07:44:38.986Z,2053.13
2018-06-24T07:45:38.984Z,2030.63
2018-06-24T07:46:38.923Z,1991.25
2018-06-24T07:47:38.914Z,1985.63
2018-06-24T07:48:38.891Z,1968.75
2018-06-24T07:49:38.847Z,1929.38
2018-06-24T07:50:38.810Z,1867.50
2018-06-24T07:51:38.789Z,1861.88
2018-06-24T07:52:38.787Z,1861.88
2018-06-24T07:53:38.759Z,1929.38
2018-06-24T07:54:38.720Z,2244.38
2018-06-24T07:55:38.675Z,2002.50
2018-06-24T07:56:38.624Z,2064.38
2018-06-24T07:57:38.600Z,2086.88
2018-06-24T07:58:38.572Z,2137.50
2018-06-24T07:59:38.542Z,2154.38
2018-06-24T08:00:38.517Z,2379.38
2018-06-24T08:01:38.485Z,2283.75
2018-06-24T08:02:38.450Z,2475.00
2018-06-24T08:03:38.442Z,2480.63
2018-06-24T08:04:38.402Z,2441.25
2018-06-24T08:05:38.386Z,2542.50
2018-06-24T08:06:38.328Z,4747.50
2018-06-24T08:07:38.309Z,4927.50
2018-06-24T08:08:38.280Z,4286.25
2018-06-24T08:09:38.270Z,2722.50
2018-06-24T08:10:38.266Z,4207.50
2018-06-24T08:11:38.221Z,4128.75
2018-06-24T08:12:38.170Z,3695.63
2018-06-24T08:13:38.141Z,2716.88
2018-06-24T08:14:38.131Z,2424.38
2018-06-24T08:15:38.079Z,2182.50
2018-06-24T08:16:38.088Z,2075.63
2018-06-24T08:17:38.064Z,2030.63
2018-06-24T08:18:38.009Z,2165.63
2018-06-24T08:19:37.997Z,2660.63
2018-06-24T08:20:37.978Z,2272.50
2018-06-24T08:21:37.917Z,2362.50
2018-06-24T08:22:37.877Z,2193.75
2018-06-24T08:23:37.868Z,2840.63
2018-06-24T08:24:37.858Z,2767.50
2018-06-24T08:25:37.831Z,2688.75
2018-06-24T08:26:37.763Z,2885.63
2018-06-24T08:27:37.751Z,2891.25
2018-06-24T08:28:37.702Z,2964.38
2018-06-24T08:29:37.797Z,3003.75
2018-06-24T08:30:37.656Z,3262.50
2018-06-24T08:31:37.708Z,3386.25
2018-06-24T08:32:37.588Z,3234.38
2018-06-24T08:33:37.584Z,3217.50
2018-06-24T08:34:37.558Z,3082.50
2018-06-24T08:35:37.533Z,2851.88
2018-06-24T08:36:37.486Z,2823.75
2018-06-24T08:37:37.461Z,2497.50
2018-06-24T08:38:37.409Z,2565.00
2018-06-24T08:39:37.384Z,2649.38
2018-06-24T08:40:37.382Z,2660.63
2018-06-24T08:41:37.321Z,2711.25
2018-06-24T08:42:37.324Z,2610.00
2018-06-24T08:43:38.253Z,2649.38
2018-06-24T08:44:37.248Z,2334.38
2018-06-24T08:45:37.233Z,2261.25
2018-06-24T08:46:37.207Z,2238.75
2018-06-24T08:47:37.183Z,2452.50
2018-06-24T08:48:37.129Z,2115.00
2018-06-24T08:49:37.213Z,2407.50
2018-06-24T08:50:37.109Z,2424.38
2018-06-24T08:51:37.102Z,2835.00
2018-06-24T08:52:37.053Z,2531.25
2018-06-24T08:53:37.035Z,2683.13
2018-06-24T08:54:36.961Z,2486.25
2018-06-24T08:55:36.932Z,2289.38
2018-06-24T08:56:36.918Z,2458.13
2018-06-24T08:57:36.890Z,2154.38
2018-06-24T08:58:36.945Z,2413.13
2018-06-24T08:59:36.860Z,2525.63
2018-06-24T09:00:36.790Z,2587.50
2018-06-24T09:01:36.768Z,2615.63
2018-06-24T09:02:36.738Z,2610.00
2018-06-24T09:03:36.705Z,2604.38
2018-06-24T09:04:36.682Z,2514.38
2018-06-24T09:05:36.643Z,2345.63
2018-06-24T09:06:36.609Z,2283.75
2018-06-24T09:07:36.586Z,2317.50
2018-06-24T09:08:36.576Z,2295.00
2018-06-24T09:09:36.551Z,2278.13
2018-06-24T09:10:36.543Z,2334.38
2018-06-24T09:11:36.449Z,2227.50
2018-06-24T09:12:36.530Z,2176.88
2018-06-24T09:13:36.468Z,2176.88
2018-06-24T09:14:36.704Z,2216.25
2018-06-24T09:15:36.370Z,2261.25
2018-06-24T09:16:36.316Z,2306.25
2018-06-24T09:17:36.309Z,2356.88
2018-06-24T09:18:36.253Z,2401.88
2018-06-24T09:19:37.610Z,2401.88
2018-06-24T09:20:36.197Z,2407.50
2018-06-24T09:21:36.278Z,2407.50
2018-06-24T09:22:36.139Z,2407.50
2018-06-24T09:23:36.484Z,2396.25
2018-06-24T09:24:36.152Z,2356.88
2018-06-24T09:25:36.027Z,2283.75
2018-06-24T09:26:36.019Z,2289.38
2018-06-24T09:27:35.996Z,2424.38
2018-06-24T09:28:35.946Z,2739.38
2018-06-24T09:29:35.908Z,2953.13
2018-06-24T09:30:35.902Z,2846.25
2018-06-24T09:31:35.865Z,2891.25
2018-06-24T09:32:35.827Z,3031.88
2018-06-24T09:33:35.828Z,3015.00
2018-06-24T09:34:35.765Z,2986.88
2018-06-24T09:35:35.760Z,3268.13
2018-06-24T09:36:35.720Z,3026.25
2018-06-24T09:37:35.681Z,3144.38
2018-06-24T09:38:35.662Z,3127.50
2018-06-24T09:39:35.619Z,3493.13
2018-06-24T09:40:35.578Z,3189.38
2018-06-24T09:41:35.587Z,3009.38
2018-06-24T09:42:35.527Z,2902.50
2018-06-24T09:43:35.525Z,2874.38
2018-06-24T09:44:35.483Z,2823.75
2018-06-24T09:45:35.425Z,2716.88
2018-06-24T09:46:35.405Z,2733.75
2018-06-24T09:47:35.374Z,2745.00
2018-06-24T09:48:35.350Z,2835.00
2018-06-24T09:49:35.496Z,2790.00
2018-06-24T09:50:35.323Z,2334.38
2018-06-24T09:51:35.280Z,2255.63
2018-06-24T09:52:49.895Z,2351.25
2018-06-24T09:53:35.199Z,2621.25
2018-06-24T09:54:35.189Z,2660.63
2018-06-24T09:55:35.154Z,2598.75
2018-06-24T09:56:35.146Z,2458.13
2018-06-24T09:57:35.122Z,2503.13
2018-06-24T09:58:35.061Z,2576.25
2018-06-24T09:59:35.021Z,2671.88
2018-06-24T10:00:35.003Z,2548.13
2018-06-24T10:01:34.958Z,2396.25
2018-06-24T10:02:34.925Z,2413.13
2018-06-24T10:03:34.920Z,2413.13
2018-06-24T10:04:34.876Z,2463.75
2018-06-24T10:05:34.852Z,2508.75
2018-06-24T10:06:34.817Z,2514.38
2018-06-24T10:07:34.793Z,2497.50
2018-06-24T10:08:34.765Z,2446.88
2018-06-24T10:09:34.738Z,2424.38
2018-06-24T10:10:34.706Z,2356.88
2018-06-24T10:11:34.663Z,2520.00
2018-06-24T10:12:34.636Z,2210.63
2018-06-24T10:13:34.606Z,1884.38
2018-06-24T10:14:34.603Z,1845.00
2018-06-24T10:15:34.562Z,1991.25
2018-06-24T10:16:34.519Z,2092.50
2018-06-24T10:17:34.525Z,2171.25
2018-06-24T10:18:34.504Z,2250.00
2018-06-24T10:19:34.420Z,2311.88
2018-06-24T10:20:34.421Z,2475.00
2018-06-24T10:21:34.392Z,2700.00
2018-06-24T10:22:34.332Z,3240.00
2018-06-24T10:23:34.333Z,2885.63
2018-06-24T10:24:34.286Z,2598.75
2018-06-24T10:25:34.255Z,2441.25
2018-06-24T10:26:34.258Z,2379.38
2018-06-24T10:27:34.240Z,2373.75
2018-06-24T10:28:34.165Z,2407.50
2018-06-24T10:29:34.181Z,2435.63
2018-06-24T10:30:34.104Z,2452.50
2018-06-24T10:31:34.058Z,2469.38
2018-06-24T10:32:34.053Z,2430.00
2018-06-24T10:33:34.014Z,2356.88
2018-06-24T10:34:33.985Z,2390.63
2018-06-24T10:35:33.955Z,2542.50
2018-06-24T10:36:33.928Z,2711.25
2018-06-24T10:37:33.892Z,2722.50
2018-06-24T10:38:34.731Z,2773.13
2018-06-24T10:39:33.830Z,2806.88
2018-06-24T10:40:33.813Z,2413.13
2018-06-24T10:41:33.811Z,2261.25
2018-06-24T10:42:33.775Z,2238.75
2018-06-24T10:43:33.721Z,2311.88
2018-06-24T10:44:33.698Z,2340.00
2018-06-24T10:45:33.645Z,2317.50
2018-06-24T10:46:33.613Z,2396.25
2018-06-24T10:47:33.638Z,2469.38
2018-06-24T10:48:33.580Z,2559.38
2018-06-24T10:49:33.596Z,2610.00
2018-06-24T10:50:33.498Z,2621.25
2018-06-24T10:51:33.499Z,2660.63
2018-06-24T10:52:33.460Z,2716.88
2018-06-24T10:53:33.419Z,2857.50
2018-06-24T10:54:33.386Z,2964.38
2018-06-24T10:55:33.355Z,3110.63
2018-06-24T10:56:33.325Z,3262.50
2018-06-24T10:57:33.330Z,3639.38
2018-06-24T10:58:33.280Z,3318.75
2018-06-24T10:59:33.231Z,3324.38
2018-06-24T11:00:33.221Z,3313.13
2018-06-24T11:01:33.177Z,3285.00
2018-06-24T11:02:33.189Z,3318.75
2018-06-24T11:03:33.133Z,3273.75
2018-06-24T11:04:33.110Z,3110.63
2018-06-24T11:05:33.076Z,2947.50
2018-06-24T11:06:33.070Z,2902.50
2018-06-24T11:07:33.032Z,2913.75
2018-06-24T11:08:32.988Z,2970.00
2018-06-24T11:09:32.962Z,3144.38
2018-06-24T11:10:32.915Z,3262.50
2018-06-24T11:11:32.897Z,3037.50
2018-06-24T11:12:32.872Z,2970.00
2018-06-24T11:13:32.856Z,2908.13
2018-06-24T11:14:32.813Z,2818.13
2018-06-24T11:15:32.780Z,2728.13
2018-06-24T11:16:32.794Z,2666.25
2018-06-24T11:17:32.750Z,2626.88
2018-06-24T11:18:32.686Z,2598.75
2018-06-24T11:19:32.679Z,2553.75
2018-06-24T11:20:32.666Z,2514.38
2018-06-24T11:21:32.615Z,2418.75
2018-06-24T11:22:32.596Z,2373.75
2018-06-24T11:23:32.589Z,2390.63
2018-06-24T11:24:32.524Z,2441.25
2018-06-24T11:25:32.536Z,2514.38
2018-06-24T11:26:32.471Z,2587.50
2018-06-24T11:27:32.496Z,2621.25
2018-06-24T11:28:32.427Z,2604.38
2018-06-24T11:29:32.385Z,2553.75
2018-06-24T11:30:32.371Z,2458.13
2018-06-24T11:31:32.330Z,2373.75
2018-06-24T11:32:32.329Z,2317.50
2018-06-24T11:33:32.271Z,2306.25
2018-06-24T11:34:32.257Z,2334.38
2018-06-24T11:35:32.209Z,2390.63
2018-06-24T11:36:32.198Z,2463.75
2018-06-24T11:37:32.219Z,2553.75
2018-06-24T11:38:32.148Z,2598.75
2018-06-24T11:39:32.100Z,2643.75
2018-06-24T11:40:32.086Z,2626.88
2018-06-24T11:41:32.036Z,2531.25
2018-06-24T11:42:32.013Z,2458.13
2018-06-24T11:43:31.996Z,2396.25
2018-06-24T11:44:31.959Z,2373.75
2018-06-24T11:45:31.914Z,2368.13
2018-06-24T11:46:31.922Z,2356.88
2018-06-24T11:47:31.880Z,2356.88
2018-06-24T11:48:31.864Z,2390.63
2018-06-24T11:49:31.812Z,2430.00
2018-06-24T11:50:31.780Z,2463.75
2018-06-24T11:51:31.789Z,2525.63
2018-06-24T11:52:31.752Z,2660.63
2018-06-24T11:53:31.697Z,2885.63
2018-06-24T11:54:31.680Z,3138.75
2018-06-24T11:55:31.687Z,3470.63
2018-06-24T11:56:31.599Z,3420.00
2018-06-24T11:57:31.687Z,3487.50
2018-06-24T11:58:31.545Z,3138.75
2018-06-24T11:59:31.572Z,2998.13
2018-06-24T12:00:31.485Z,2896.88
2018-06-24T12:01:31.465Z,2733.75
2018-06-24T12:02:31.489Z,2683.13
2018-06-24T12:03:31.402Z,2688.75
2018-06-24T12:04:31.370Z,2745.00
2018-06-24T12:05:31.345Z,2896.88
2018-06-24T12:06:31.327Z,3110.63
2018-06-24T12:07:31.291Z,3144.38
2018-06-24T12:08:31.259Z,3003.75
2018-06-24T12:09:31.249Z,2638.13
2018-06-24T12:10:31.207Z,2300.63
2018-06-24T12:11:31.172Z,1996.88
2018-06-24T12:12:31.220Z,1755.00
2018-06-24T12:13:31.775Z,1614.38
2018-06-24T12:14:31.100Z,1558.13
2018-06-24T12:15:31.082Z,1591.88
2018-06-24T12:16:31.034Z,1665.00
2018-06-24T12:17:31.021Z,1788.75
2018-06-24T12:18:30.974Z,1901.25
2018-06-24T12:19:31.008Z,1963.13
2018-06-24T12:20:30.920Z,1985.63
2018-06-24T12:21:30.916Z,1951.88
2018-06-24T12:22:30.898Z,1878.75
2018-06-24T12:23:30.844Z,1822.50
2018-06-24T12:24:30.820Z,1828.13
2018-06-24T12:25:30.778Z,1918.13
2018-06-24T12:26:30.754Z,2070.00
2018-06-24T12:27:30.716Z,2216.25
2018-06-24T12:28:30.704Z,2199.38